Historique des mesures à Cassis (13260), France
Quotidien Résumé Avril 29, 2018 Unités:  Métrique    US   Métrique/US
« Précédent (Jour)
Suivant (Jour) »
Quotidien Hebdomadaire Mensuel Annuel Période au choix
  Maximum: Minimum: Moyenne:
Température: TemperatureC °C 14.4 °C 16.7 °C
Point de rosée: DewpointC °C 9.8 °C 11.4 °C
Humidité: Humidity % 57 % 67 %
Vitesse du vent: 0 km/h 0 km/h 4.5 km/h
Rafales: 0 km/h - -
Vent:- - SSE
Pression: PressurehPa hPa 1003.6 hPa -
Précipitations: 8.4 mm    
Historical Graphs
 
 
Mesures pour : Avril 29, 2018
Heure Temperature Point de rosée Pression Vent Vitesse du vent Rafales Humidité Pluie (par heure) Conditions
TemperatureC °C DewpointC °C PressurehPa hPa Calm     Humidity % HourlyPrecipMM mm SoftwareType W/m2
00:11 17.2 °C 13.1 °C 1007.7 hPa Calm     77 % 0.0 mm open2300-1.11 W/m2
01:11 16.9 °C 12.8 °C 1007.7 hPa Calm   9.3 km/h 77 % 0.0 mm open2300-1.11 W/m2
02:11 16.6 °C 12.7 °C 1007.3 hPa Calm     78 % 0.0 mm open2300-1.11 W/m2
03:11 16.4 °C 11.9 °C 1006.7 hPa Calm   12.2 km/h 75 % 0.0 mm open2300-1.11 W/m2
04:10 16.1 °C 11.3 °C 1006.3 hPa WNW 3.4 km/h 3.4 km/h 73 % 0.0 mm open2300-1.11 W/m2
05:10 16.1 °C 10.9 °C 1005.6 hPa Calm   4.2 km/h 71 % 0.0 mm open2300-1.11 W/m2
06:10 16.4 °C 10.3 °C 1005.6 hPa SE 4.7 km/h 4.7 km/h 67 % 0.0 mm open2300-1.11 W/m2
07:10 16.7 °C 10.6 °C 1006.0 hPa East 5.1 km/h 5.1 km/h 67 % 0.0 mm open2300-1.11 W/m2
08:10 18.0 °C 11.1 °C 1006.0 hPa Calm   12.2 km/h 64 % 0.0 mm open2300-1.11 W/m2
09:10 18.7 °C 12.2 °C 1005.6 hPa ESE 6.4 km/h 6.4 km/h 66 % 0.0 mm open2300-1.11 W/m2
10:10 19.5 °C 12.2 °C 1005.6 hPa SE 5.1 km/h 8.9 km/h 63 % 0.0 mm open2300-1.11 W/m2
11:10 21.2 °C 13.4 °C 1005.6 hPa ENE 5.6 km/h 8 km/h 61 % 0.0 mm open2300-1.11 W/m2
12:10 21.3 °C 12.7 °C 1005.3 hPa SE 2.3 km/h 10.9 km/h 58 % 0.0 mm open2300-1.11 W/m2
13:10 21.9 °C 12.9 °C 1005.0 hPa Calm   10.9 km/h 57 % 0.0 mm open2300-1.11 W/m2
14:11 20.6 °C 12.1 °C 1004.6 hPa ESE 6.9 km/h 27.2 km/h 58 % 0.0 mm open2300-1.11 W/m2
15:12 19.8 °C 11.3 °C 1004.3 hPa SSE 12.2 km/h 12.2 km/h 58 % 0.0 mm open2300-1.11 W/m2
16:11 18.4 °C 12.2 °C 1003.9 hPa SE 4.7 km/h 36 km/h 67 % 0.0 mm open2300-1.11 W/m2
17:12 16.7 °C 12.6 °C 1003.6 hPa SW 5.1 km/h 12.2 km/h 77 % 4.6 mm open2300-1.11 W/m2
18:11 15.5 °C 12.1 °C 1003.9 hPa Calm   11.6 km/h 80 % 3.6 mm open2300-1.11 W/m2
19:11 15.0 °C 11.6 °C 1003.9 hPa SSE 18.7 km/h 18.7 km/h 80 % 0.0 mm open2300-1.11 W/m2
20:11 15.4 °C 12.3 °C 1003.9 hPa WSW 4.7 km/h 4.7 km/h 82 % 0.0 mm open2300-1.11 W/m2
21:11 15.0 °C 11.4 °C 1004.6 hPa SW 13.2 km/h 13.2 km/h 79 % 0.0 mm open2300-1.11 W/m2
22:11 14.9 °C 10.5 °C 1006.0 hPa SE 13.2 km/h 16.9 km/h 75 % 0.0 mm open2300-1.11 W/m2
23:12 14.4 °C 9.8 °C 1006.3 hPa Calm   6.9 km/h 74 % 0.0 mm open2300-1.11 W/m2
Observations météo à CASSIS
WU-History script by Weather Underground - 1 mb